Barstow Daggett Airport Daggett US
ICAO: KDAG
IATA: DAG
Category: Medium
Scheduled Services: No

Elevation: 1930 ft
TransAlt. 18000 ft.

Airport Communications:
ASOS:132.175
LOS ANGELES CNTR:132.5
HAWK 86:46.7
RIVERSIDE RDO:122.2
CTAF/UNICOM:123

KDAG Zoom In..

If you have problems with the map follow the link
https://www.worldairports.se/pages/airport.php?
ICAO=KDAG

Runways:

(A) RW 04 length 5123 ft width 100 ft
---- / hdg 35

(B) RW 08 length 6402 ft width 150 ft
---- / hdg 74

(C) RW 22 length 5123 ft width 100 ft
---- / hdg 215

(D) RW 26 length 6402 ft width 150 ft
---- / hdg 254

Location; KDAG
Day. 07 / Time. 08.50 Zulu
* Altimeter: 30.16
* Temperature: 09° c. 48.2°f.
* Wind from: 290° Speed 05 kn.
Dewpoint: 08° c.
Visibility: 5 Statute Miles.
Clouds: Clear (automated report).
Conditions: Mist.

KDAG 070850Z AUTO 29005KT 5SM BR CLR 09/08 A3016 RMK AO2 SLP206 60000 T00890078 58006


Wind From 290°
Speed 05 kn.

 
 
jpsmedia worldairports.se 2019   terms of use